Aérodrome :
LOGIN :

S'inscrire | Disclaimer

   EN    FR    IT 

 










Légende :    VFR   VFR Marginal   IFR   IFR Intensif   IFR Très Intensif
Visi : 
Plafond : 
>= 8 km
>= 3000ft
5 à 8 km
1000 à 3000 ft
1500m à 5 km
500 à 1000 ft
800 à 1500m
200 à 500 ft
< 800m
< 200 ft
Symboles :   Orages  Brouillard  Fortes neiges  Fortes précipitations  Vent > 20 kt
SIGMETs :   Divers  Orages  Givrage  Turbulence  Onde Orograph.  Cendres Volcan.







- Altitude de l'aérodrome : 267 ft


EGDR - Culdrose Navy

DERNIER METAR :
  • 231950Z 24011KT 3000 -DZ FEW004 BKN006 OVC010 10/09 Q1019 YLO1

METARs EXPIRÉS :
  • 231850Z 23011KT 9999 FEW008 SCT012 BKN015 11/09 Q1018 GRN
  • 231750Z 22013KT 9999 FEW018 BKN024 BKN070 11/09 Q1018 WHT NOSIG

TAF TAF EGDR
Valide du 23 à 12h jusqu'au 23 à 21h UTC


231102Z 2312/2321 23010KT 9999 FEW022 SCT030
PROB30
TEMPO 2312/2318 SCT022
BECMG 2316/2318 22015G25KT 8000 HZ -RA SCT012 BKN018 OVC030
TEMPO 2318/2321 3000 RADZ FEW002 SCT004 BKN008
Pas de NOTAMs connus pour ce terrain.



MET'MAP, la Météo Aéronautique d'un coup d'oeil ! - Copyright ORBIFLY Décembre 2007 - Disclaimer

ORBIFLY MET'MAP TEAM :

Programmation & Développement : Alexandra Zaïnal
Conception & Développement : Baudouin d'Aumeries
Co-Programmation & Développement : Marc-Olivier Méhu
Soutien technique & logistique : Manuel Goepfert

Contact : metmap@orbifly.com




SOURCES & CREDITS :

   NOAA